sensor_id;sensor_type;location;lat;lon;timestamp;pressure;altitude;pressure_sealevel;temperature;humidity
64352;BME280;50680;52.626;-8.668;2023-04-28T00:00:04;100751.28;;;11.57;100.00
64352;BME280;50680;52.626;-8.668;2023-04-28T00:02:31;100746.03;;;11.57;100.00
64352;BME280;50680;52.626;-8.668;2023-04-28T00:04:59;100757.38;;;11.57;100.00
64352;BME280;50680;52.626;-8.668;2023-04-28T00:07:27;100758.25;;;11.58;100.00
64352;BME280;50680;52.626;-8.668;2023-04-28T00:09:54;100755.72;;;11.56;100.00
64352;BME280;50680;52.626;-8.668;2023-04-28T00:12:22;100746.88;;;11.57;100.00
64352;BME280;50680;52.626;-8.668;2023-04-28T00:14:49;100768.94;;;11.55;100.00
64352;BME280;50680;52.626;-8.668;2023-04-28T00:17:16;100774.19;;;11.55;100.00
64352;BME280;50680;52.626;-8.668;2023-04-28T00:19:43;100769.84;;;11.54;100.00
64352;BME280;50680;52.626;-8.668;2023-04-28T00:22:10;100776.16;;;11.51;100.00
64352;BME280;50680;52.626;-8.668;2023-04-28T00:24:37;100778.59;;;11.54;100.00
64352;BME280;50680;52.626;-8.668;2023-04-28T00:27:04;100773.22;;;11.56;100.00
64352;BME280;50680;52.626;-8.668;2023-04-28T00:29:31;100779.53;;;11.53;100.00
64352;BME280;50680;52.626;-8.668;2023-04-28T00:31:58;100775.09;;;11.54;100.00
64352;BME280;50680;52.626;-8.668;2023-04-28T00:34:25;100777.72;;;11.54;100.00
64352;BME280;50680;52.626;-8.668;2023-04-28T00:36:51;100774.09;;;11.56;100.00
64352;BME280;50680;52.626;-8.668;2023-04-28T00:39:18;100776.72;;;11.56;100.00
64352;BME280;50680;52.626;-8.668;2023-04-28T00:41:45;100782.88;;;11.55;100.00
64352;BME280;50680;52.626;-8.668;2023-04-28T00:44:12;100785.50;;;11.55;100.00
64352;BME280;50680;52.626;-8.668;2023-04-28T00:46:39;100782.78;;;11.57;100.00
64352;BME280;50680;52.626;-8.668;2023-04-28T00:49:07;100790.03;;;11.53;100.00
64352;BME280;50680;52.626;-8.668;2023-04-28T00:51:33;100793.56;;;11.52;100.00
64352;BME280;50680;52.626;-8.668;2023-04-28T00:54:01;100793.47;;;11.54;100.00
64352;BME280;50680;52.626;-8.668;2023-04-28T00:56:28;100794.34;;;11.54;100.00
64352;BME280;50680;52.626;-8.668;2023-04-28T00:58:57;100796.03;;;11.55;100.00
64352;BME280;50680;52.626;-8.668;2023-04-28T01:01:24;100804.84;;;11.54;100.00
64352;BME280;50680;52.626;-8.668;2023-04-28T01:03:51;100805.69;;;11.55;100.00
64352;BME280;50680;52.626;-8.668;2023-04-28T01:06:18;100809.53;;;11.63;100.00
64352;BME280;50680;52.626;-8.668;2023-04-28T01:08:48;100810.34;;;11.64;100.00
64352;BME280;50680;52.626;-8.668;2023-04-28T01:11:16;100812.97;;;11.64;100.00
64352;BME280;50680;52.626;-8.668;2023-04-28T01:13:43;100810.19;;;11.67;100.00
64352;BME280;50680;52.626;-8.668;2023-04-28T01:16:09;100810.63;;;11.74;100.00
64352;BME280;50680;52.626;-8.668;2023-04-28T01:18:37;100816.63;;;11.76;100.00
64352;BME280;50680;52.626;-8.668;2023-04-28T01:21:07;100816.63;;;11.76;100.00
64352;BME280;50680;52.626;-8.668;2023-04-28T01:23:33;100815.72;;;11.77;100.00
64352;BME280;50680;52.626;-8.668;2023-04-28T01:26:00;100816.72;;;11.74;100.00
64352;BME280;50680;52.626;-8.668;2023-04-28T01:28:27;100815.25;;;11.70;100.00
64352;BME280;50680;52.626;-8.668;2023-04-28T01:30:54;100815.06;;;11.73;100.00
64352;BME280;50680;52.626;-8.668;2023-04-28T01:33:21;100820.31;;;11.73;100.00
64352;BME280;50680;52.626;-8.668;2023-04-28T01:35:48;100824.69;;;11.73;100.00
64352;BME280;50680;52.626;-8.668;2023-04-28T01:38:15;100837.00;;;11.72;100.00
64352;BME280;50680;52.626;-8.668;2023-04-28T01:40:42;100829.13;;;11.72;100.00
64352;BME280;50680;52.626;-8.668;2023-04-28T01:43:09;100836.16;;;11.72;100.00
64352;BME280;50680;52.626;-8.668;2023-04-28T01:45:36;100834.47;;;11.71;100.00
64352;BME280;50680;52.626;-8.668;2023-04-28T01:48:03;100831.84;;;11.71;100.00
64352;BME280;50680;52.626;-8.668;2023-04-28T01:50:30;100832.66;;;11.71;100.00
64352;BME280;50680;52.626;-8.668;2023-04-28T01:52:57;100833.44;;;11.73;100.00
64352;BME280;50680;52.626;-8.668;2023-04-28T01:55:24;100833.31;;;11.75;100.00
64352;BME280;50680;52.626;-8.668;2023-04-28T01:57:51;100842.91;;;11.76;100.00
64352;BME280;50680;52.626;-8.668;2023-04-28T02:00:18;100837.56;;;11.77;100.00
64352;BME280;50680;52.626;-8.668;2023-04-28T02:02:44;100838.38;;;11.78;100.00
64352;BME280;50680;52.626;-8.668;2023-04-28T02:05:12;100839.25;;;11.78;100.00
64352;BME280;50680;52.626;-8.668;2023-04-28T02:07:38;100839.25;;;11.78;100.00
64352;BME280;50680;52.626;-8.668;2023-04-28T02:10:06;100843.47;;;11.81;100.00
64352;BME280;50680;52.626;-8.668;2023-04-28T02:12:33;100857.34;;;11.83;100.00
64352;BME280;50680;52.626;-8.668;2023-04-28T02:15:00;100832.56;;;11.73;100.00
64352;BME280;50680;52.626;-8.668;2023-04-28T02:17:30;100851.44;;;11.79;100.00
64352;BME280;50680;52.626;-8.668;2023-04-28T02:19:57;100855.84;;;11.79;100.00
64352;BME280;50680;52.626;-8.668;2023-04-28T02:22:24;100864.47;;;11.81;100.00
64352;BME280;50680;52.626;-8.668;2023-04-28T02:24:51;100856.69;;;11.79;100.00
64352;BME280;50680;52.626;-8.668;2023-04-28T02:27:18;100859.22;;;11.81;100.00
64352;BME280;50680;52.626;-8.668;2023-04-28T02:29:45;100858.19;;;11.83;100.00
64352;BME280;50680;52.626;-8.668;2023-04-28T02:32:11;100855.56;;;11.83;100.00
64352;BME280;50680;52.626;-8.668;2023-04-28T02:34:38;100865.13;;;11.84;100.00
64352;BME280;50680;52.626;-8.668;2023-04-28T02:37:05;100859.88;;;11.84;100.00
64352;BME280;50680;52.626;-8.668;2023-04-28T02:39:32;100859.13;;;11.82;100.00
64352;BME280;50680;52.626;-8.668;2023-04-28T02:41:59;100855.56;;;11.83;100.00
64352;BME280;50680;52.626;-8.668;2023-04-28T02:44:26;100868.03;;;11.80;100.00
64352;BME280;50680;52.626;-8.668;2023-04-28T02:46:52;100874.97;;;11.81;100.00
64352;BME280;50680;52.626;-8.668;2023-04-28T02:49:19;100875.81;;;11.81;100.00
64352;BME280;50680;52.626;-8.668;2023-04-28T02:51:46;100874.88;;;11.82;100.00
64352;BME280;50680;52.626;-8.668;2023-04-28T02:54:13;100870.56;;;11.81;100.00
64352;BME280;50680;52.626;-8.668;2023-04-28T02:56:40;100874.06;;;11.82;100.00
64352;BME280;50680;52.626;-8.668;2023-04-28T02:59:07;100879.50;;;11.79;100.00
64352;BME280;50680;52.626;-8.668;2023-04-28T03:01:34;100882.13;;;11.79;100.00
64352;BME280;50680;52.626;-8.668;2023-04-28T03:04:01;100883.03;;;11.78;100.00
64352;BME280;50680;52.626;-8.668;2023-04-28T03:06:28;100883.91;;;11.78;100.00
64352;BME280;50680;52.626;-8.668;2023-04-28T03:08:55;100879.50;;;11.79;100.00
64352;BME280;50680;52.626;-8.668;2023-04-28T03:11:22;100885.31;;;11.84;100.00
64352;BME280;50680;52.626;-8.668;2023-04-28T03:13:49;100889.72;;;11.83;100.00
64352;BME280;50680;52.626;-8.668;2023-04-28T03:16:16;100884.47;;;11.83;100.00
64352;BME280;50680;52.626;-8.668;2023-04-28T03:18:43;100884.34;;;11.85;100.00
64352;BME280;50680;52.626;-8.668;2023-04-28T03:21:10;100893.00;;;11.87;100.00
64352;BME280;50680;52.626;-8.668;2023-04-28T03:23:36;100882.50;;;11.87;100.00
64352;BME280;50680;52.626;-8.668;2023-04-28T03:26:03;100881.72;;;11.85;100.00
64352;BME280;50680;52.626;-8.668;2023-04-28T03:28:30;100888.69;;;11.86;100.00
64352;BME280;50680;52.626;-8.668;2023-04-28T03:30:57;100894.69;;;11.88;100.00
64352;BME280;50680;52.626;-8.668;2023-04-28T03:33:24;100893.94;;;11.86;100.00
64352;BME280;50680;52.626;-8.668;2023-04-28T03:35:51;100896.75;;;11.83;100.00
64352;BME280;50680;52.626;-8.668;2023-04-28T03:38:19;100898.34;;;11.85;100.00
64352;BME280;50680;52.626;-8.668;2023-04-28T03:40:46;100903.59;;;11.85;100.00
64352;BME280;50680;52.626;-8.668;2023-04-28T03:43:13;100900.13;;;11.85;100.00
64352;BME280;50680;52.626;-8.668;2023-04-28T03:45:40;100896.19;;;11.78;100.00
64352;BME280;50680;52.626;-8.668;2023-04-28T03:48:07;100913.25;;;11.85;100.00
64352;BME280;50680;52.626;-8.668;2023-04-28T03:50:34;100915.03;;;11.84;100.00
64352;BME280;50680;52.626;-8.668;2023-04-28T03:53:01;100918.41;;;11.86;100.00
64352;BME280;50680;52.626;-8.668;2023-04-28T03:55:27;100913.25;;;11.85;100.00
64352;BME280;50680;52.626;-8.668;2023-04-28T03:57:54;100914.13;;;11.85;100.00
64352;BME280;50680;52.626;-8.668;2023-04-28T04:00:21;100920.19;;;11.86;100.00
64352;BME280;50680;52.626;-8.668;2023-04-28T04:02:48;100920.94;;;11.88;100.00
64352;BME280;50680;52.626;-8.668;2023-04-28T04:05:15;100923.56;;;11.88;100.00
64352;BME280;50680;52.626;-8.668;2023-04-28T04:07:42;100923.56;;;11.88;100.00
64352;BME280;50680;52.626;-8.668;2023-04-28T04:10:09;100923.56;;;11.88;100.00
64352;BME280;50680;52.626;-8.668;2023-04-28T04:12:36;100923.56;;;11.88;100.00
64352;BME280;50680;52.626;-8.668;2023-04-28T04:15:03;100922.75;;;11.88;100.00
64352;BME280;50680;52.626;-8.668;2023-04-28T04:17:30;100935.78;;;11.89;100.00
64352;BME280;50680;52.626;-8.668;2023-04-28T04:19:57;100932.19;;;11.90;100.00
64352;BME280;50680;52.626;-8.668;2023-04-28T04:22:24;100936.63;;;11.90;100.00
64352;BME280;50680;52.626;-8.668;2023-04-28T04:24:51;100937.47;;;11.90;100.00
64352;BME280;50680;52.626;-8.668;2023-04-28T04:27:17;100943.63;;;11.91;100.00
64352;BME280;50680;52.626;-8.668;2023-04-28T04:29:44;100946.28;;;11.89;100.00
64352;BME280;50680;52.626;-8.668;2023-04-28T04:32:11;100939.34;;;11.88;100.00
64352;BME280;50680;52.626;-8.668;2023-04-28T04:34:38;100958.47;;;11.90;100.00
64352;BME280;50680;52.626;-8.668;2023-04-28T04:37:05;100947.22;;;11.88;100.00
64352;BME280;50680;52.626;-8.668;2023-04-28T04:39:32;100944.44;;;11.91;100.00
64352;BME280;50680;52.626;-8.668;2023-04-28T04:41:58;100954.78;;;11.94;100.00
64352;BME280;50680;52.626;-8.668;2023-04-28T04:44:38;100954.03;;;11.92;100.00
64352;BME280;50680;52.626;-8.668;2023-04-28T04:47:05;100961.16;;;12.04;100.00
64352;BME280;50680;52.626;-8.668;2023-04-28T04:49:32;100962.66;;;12.09;100.00
64352;BME280;50680;52.626;-8.668;2023-04-28T04:51:59;100970.25;;;12.13;100.00
64352;BME280;50680;52.626;-8.668;2023-04-28T04:54:27;100970.91;;;12.17;100.00
64352;BME280;50680;52.626;-8.668;2023-04-28T04:56:54;100979.72;;;12.16;100.00
64352;BME280;50680;52.626;-8.668;2023-04-28T04:59:20;100974.56;;;12.14;100.00
64352;BME280;50680;52.626;-8.668;2023-04-28T05:01:47;100984.16;;;12.15;100.00
64352;BME280;50680;52.626;-8.668;2023-04-28T05:04:14;100967.72;;;12.12;100.00
64352;BME280;50680;52.626;-8.668;2023-04-28T05:06:42;100980.59;;;12.16;100.00
64352;BME280;50680;52.626;-8.668;2023-04-28T05:09:08;100989.22;;;12.18;100.00
64352;BME280;50680;52.626;-8.668;2023-04-28T05:11:35;100994.56;;;12.17;100.00
64352;BME280;50680;52.626;-8.668;2023-04-28T05:14:02;100980.88;;;12.12;100.00
64352;BME280;50680;52.626;-8.668;2023-04-28T05:16:29;100993.59;;;12.18;100.00
64352;BME280;50680;52.626;-8.668;2023-04-28T05:18:56;100992.69;;;12.19;100.00
64352;BME280;50680;52.626;-8.668;2023-04-28T05:21:22;100999.72;;;12.18;100.00
64352;BME280;50680;52.626;-8.668;2023-04-28T05:23:49;100999.81;;;12.17;100.00
64352;BME280;50680;52.626;-8.668;2023-04-28T05:26:16;101005.91;;;12.17;100.00
64352;BME280;50680;52.626;-8.668;2023-04-28T05:28:43;101004.13;;;12.18;100.00
64352;BME280;50680;52.626;-8.668;2023-04-28T05:31:10;101008.38;;;12.20;100.00
64352;BME280;50680;52.626;-8.668;2023-04-28T05:33:36;101012.56;;;12.23;100.00
64352;BME280;50680;52.626;-8.668;2023-04-28T05:36:03;101005.47;;;12.25;100.00
64352;BME280;50680;52.626;-8.668;2023-04-28T05:38:31;101010.72;;;12.25;100.00
64352;BME280;50680;52.626;-8.668;2023-04-28T05:41:01;101010.50;;;12.28;100.00
64352;BME280;50680;52.626;-8.668;2023-04-28T05:43:28;101019.16;;;12.30;100.00
64352;BME280;50680;52.626;-8.668;2023-04-28T05:45:54;101017.28;;;12.32;100.00
64352;BME280;50680;52.626;-8.668;2023-04-28T05:48:21;101021.59;;;12.33;100.00
64352;BME280;50680;52.626;-8.668;2023-04-28T05:50:48;101020.66;;;12.34;100.00
64352;BME280;50680;52.626;-8.668;2023-04-28T05:53:15;101030.78;;;12.40;100.00
64352;BME280;50680;52.626;-8.668;2023-04-28T05:55:42;101029.94;;;12.40;100.00
64352;BME280;50680;52.626;-8.668;2023-04-28T05:58:09;101026.38;;;12.41;100.00
64352;BME280;50680;52.626;-8.668;2023-04-28T06:00:36;101032.47;;;12.41;100.00
64352;BME280;50680;52.626;-8.668;2023-04-28T06:03:03;101031.66;;;12.41;100.00
64352;BME280;50680;52.626;-8.668;2023-04-28T06:05:31;101038.38;;;12.45;100.00
64352;BME280;50680;52.626;-8.668;2023-04-28T06:07:58;101043.47;;;12.48;100.00
64352;BME280;50680;52.626;-8.668;2023-04-28T06:10:25;101041.66;;;12.49;100.00
64352;BME280;50680;52.626;-8.668;2023-04-28T06:12:52;101049.19;;;12.55;100.00
64352;BME280;50680;52.626;-8.668;2023-04-28T06:15:19;101055.94;;;12.59;100.00
64352;BME280;50680;52.626;-8.668;2023-04-28T06:17:46;101052.19;;;12.63;100.00
64352;BME280;50680;52.626;-8.668;2023-04-28T06:20:13;101059.97;;;12.65;100.00
64352;BME280;50680;52.626;-8.668;2023-04-28T06:22:40;101061.47;;;12.69;100.00
64352;BME280;50680;52.626;-8.668;2023-04-28T06:25:07;101070.88;;;12.73;100.00
64352;BME280;50680;52.626;-8.668;2023-04-28T06:27:34;101071.59;;;12.75;100.00
64352;BME280;50680;52.626;-8.668;2023-04-28T06:30:01;101076.03;;;12.74;100.00
64352;BME280;50680;52.626;-8.668;2023-04-28T06:32:28;101074.31;;;12.73;100.00
64352;BME280;50680;52.626;-8.668;2023-04-28T06:34:55;101076.41;;;12.68;100.00
64352;BME280;50680;52.626;-8.668;2023-04-28T06:37:24;101087.88;;;12.67;100.00
64352;BME280;50680;52.626;-8.668;2023-04-28T06:39:50;101088.63;;;12.69;100.00
64352;BME280;50680;52.626;-8.668;2023-04-28T06:42:17;101093.69;;;12.72;100.00
64352;BME280;50680;52.626;-8.668;2023-04-28T06:44:46;101091.63;;;12.77;100.00
64352;BME280;50680;52.626;-8.668;2023-04-28T06:47:13;101099.69;;;12.89;100.00
64352;BME280;50680;52.626;-8.668;2023-04-28T06:49:40;101100.59;;;13.02;100.00
64352;BME280;50680;52.626;-8.668;2023-04-28T06:52:09;101105.00;;;13.16;100.00
64352;BME280;50680;52.626;-8.668;2023-04-28T06:54:36;101107.50;;;13.32;100.00
64352;BME280;50680;52.626;-8.668;2023-04-28T06:57:04;101112.94;;;13.43;100.00
64352;BME280;50680;52.626;-8.668;2023-04-28T06:59:31;101108.34;;;13.60;100.00
64352;BME280;50680;52.626;-8.668;2023-04-28T07:01:58;101110.78;;;13.63;100.00
64352;BME280;50680;52.626;-8.668;2023-04-28T07:04:25;101111.66;;;13.76;100.00
64352;BME280;50680;52.626;-8.668;2023-04-28T07:06:52;101115.19;;;13.89;100.00
64352;BME280;50680;52.626;-8.668;2023-04-28T07:09:19;101120.56;;;14.01;100.00
64352;BME280;50680;52.626;-8.668;2023-04-28T07:11:46;101124.38;;;14.09;100.00
64352;BME280;50680;52.626;-8.668;2023-04-28T07:14:13;101122.47;;;14.11;100.00
64352;BME280;50680;52.626;-8.668;2023-04-28T07:16:40;101123.00;;;14.17;100.00
64352;BME280;50680;52.626;-8.668;2023-04-28T07:19:07;101137.78;;;14.19;100.00
64352;BME280;50680;52.626;-8.668;2023-04-28T07:21:34;101136.63;;;14.23;100.00
64352;BME280;50680;52.626;-8.668;2023-04-28T07:24:01;101137.69;;;14.34;100.00
64352;BME280;50680;52.626;-8.668;2023-04-28T07:26:28;101132.84;;;14.40;100.00
64352;BME280;50680;52.626;-8.668;2023-04-28T07:28:55;101138.31;;;14.37;100.00
64352;BME280;50680;52.626;-8.668;2023-04-28T07:31:22;101135.56;;;14.39;100.00
64352;BME280;50680;52.626;-8.668;2023-04-28T07:33:48;101132.84;;;14.40;100.00
64352;BME280;50680;52.626;-8.668;2023-04-28T07:36:15;101136.94;;;14.44;100.00
64352;BME280;50680;52.626;-8.668;2023-04-28T07:38:42;101148.00;;;14.49;100.00
64352;BME280;50680;52.626;-8.668;2023-04-28T07:41:09;101142.34;;;14.56;100.00
64352;BME280;50680;52.626;-8.668;2023-04-28T07:43:37;101144.88;;;14.70;100.00
64352;BME280;50680;52.626;-8.668;2023-04-28T07:46:05;101147.84;;;14.78;100.00
64352;BME280;50680;52.626;-8.668;2023-04-28T07:48:33;101146.13;;;14.77;100.00
64352;BME280;50680;52.626;-8.668;2023-04-28T07:51:00;101150.03;;;14.72;100.00
64352;BME280;50680;52.626;-8.668;2023-04-28T07:53:27;101151.84;;;14.71;100.00
64352;BME280;50680;52.626;-8.668;2023-04-28T07:55:54;101145.94;;;14.68;100.00
64352;BME280;50680;52.626;-8.668;2023-04-28T07:58:20;101153.41;;;14.74;100.00
64352;BME280;50680;52.626;-8.668;2023-04-28T08:00:47;101156.91;;;14.87;100.00
64352;BME280;50680;52.626;-8.668;2023-04-28T08:03:14;101158.16;;;14.94;100.00
64352;BME280;50680;52.626;-8.668;2023-04-28T08:05:42;101168.34;;;15.12;100.00
64352;BME280;50680;52.626;-8.668;2023-04-28T08:08:10;101172.13;;;15.20;100.00
64352;BME280;50680;52.626;-8.668;2023-04-28T08:10:37;101170.69;;;15.16;100.00
64352;BME280;50680;52.626;-8.668;2023-04-28T08:13:07;101177.53;;;15.19;100.00
64352;BME280;50680;52.626;-8.668;2023-04-28T08:15:34;101186.06;;;15.35;100.00
64352;BME280;50680;52.626;-8.668;2023-04-28T08:18:01;101175.94;;;15.53;100.00
64352;BME280;50680;52.626;-8.668;2023-04-28T08:20:28;101187.50;;;15.76;100.00
64352;BME280;50680;52.626;-8.668;2023-04-28T08:22:55;101185.41;;;15.93;100.00
64352;BME280;50680;52.626;-8.668;2023-04-28T08:25:22;101190.38;;;15.97;100.00
64352;BME280;50680;52.626;-8.668;2023-04-28T08:27:49;101191.91;;;16.00;100.00
64352;BME280;50680;52.626;-8.668;2023-04-28T08:30:16;101190.06;;;15.89;100.00
64352;BME280;50680;52.626;-8.668;2023-04-28T08:32:43;101194.91;;;15.71;100.00
64352;BME280;50680;52.626;-8.668;2023-04-28T08:35:11;101201.31;;;15.56;100.00
64352;BME280;50680;52.626;-8.668;2023-04-28T08:37:38;101196.31;;;15.40;100.00
64352;BME280;50680;52.626;-8.668;2023-04-28T08:40:05;101202.31;;;15.29;100.00
64352;BME280;50680;52.626;-8.668;2023-04-28T08:42:36;101203.50;;;15.25;100.00
64352;BME280;50680;52.626;-8.668;2023-04-28T08:45:04;101200.19;;;15.34;100.00
64352;BME280;50680;52.626;-8.668;2023-04-28T08:47:36;101213.72;;;15.42;100.00
64352;BME280;50680;52.626;-8.668;2023-04-28T08:50:05;101213.13;;;15.63;100.00
64352;BME280;50680;52.626;-8.668;2023-04-28T08:52:33;101218.25;;;15.77;100.00
64352;BME280;50680;52.626;-8.668;2023-04-28T08:55:05;101217.94;;;15.82;100.00
64352;BME280;50680;52.626;-8.668;2023-04-28T08:57:42;101223.63;;;15.89;100.00
64352;BME280;50680;52.626;-8.668;2023-04-28T09:00:10;101223.22;;;16.06;100.00
64352;BME280;50680;52.626;-8.668;2023-04-28T09:02:38;101227.69;;;16.17;100.00
64352;BME280;50680;52.626;-8.668;2023-04-28T09:05:09;101220.41;;;16.32;100.00
64352;BME280;50680;52.626;-8.668;2023-04-28T09:07:37;101230.63;;;16.36;100.00
64352;BME280;50680;52.626;-8.668;2023-04-28T09:10:18;101232.84;;;16.43;100.00
64352;BME280;50680;52.626;-8.668;2023-04-28T09:12:45;101238.06;;;16.67;100.00
64352;BME280;50680;52.626;-8.668;2023-04-28T09:18:00;101230.16;;;16.89;100.00
64352;BME280;50680;52.626;-8.668;2023-04-28T09:20:29;101233.16;;;16.85;100.00
64352;BME280;50680;52.626;-8.668;2023-04-28T09:23:12;101235.28;;;16.80;100.00
64352;BME280;50680;52.626;-8.668;2023-04-28T09:25:39;101234.03;;;16.85;100.00
64352;BME280;50680;52.626;-8.668;2023-04-28T09:28:20;101234.69;;;16.76;100.00
64352;BME280;50680;52.626;-8.668;2023-04-28T09:30:49;101242.75;;;16.74;100.00
64352;BME280;50680;52.626;-8.668;2023-04-28T09:33:16;101240.81;;;16.65;100.00
64352;BME280;50680;52.626;-8.668;2023-04-28T09:35:43;101250.25;;;16.81;100.00
64352;BME280;50680;52.626;-8.668;2023-04-28T09:38:14;101249.06;;;16.85;100.00
64352;BME280;50680;52.626;-8.668;2023-04-28T09:45:53;101258.69;;;16.86;100.00
64352;BME280;50680;52.626;-8.668;2023-04-28T09:48:37;101261.25;;;16.52;100.00
64352;BME280;50680;52.626;-8.668;2023-04-28T09:51:05;101265.66;;;16.40;100.00
64352;BME280;50680;52.626;-8.668;2023-04-28T09:53:33;101260.28;;;16.17;100.00
64352;BME280;50680;52.626;-8.668;2023-04-28T09:56:02;101264.81;;;16.04;100.00
64352;BME280;50680;52.626;-8.668;2023-04-28T09:58:30;101264.22;;;16.12;100.00
64352;BME280;50680;52.626;-8.668;2023-04-28T10:00:59;101273.91;;;16.24;100.00
64352;BME280;50680;52.626;-8.668;2023-04-28T10:03:28;101275.41;;;16.40;100.00
64352;BME280;50680;52.626;-8.668;2023-04-28T10:05:57;101282.34;;;16.65;100.00
64352;BME280;50680;52.626;-8.668;2023-04-28T10:08:25;101285.78;;;16.89;100.00
64352;BME280;50680;52.626;-8.668;2023-04-28T10:10:53;101287.50;;;17.02;100.00
64352;BME280;50680;52.626;-8.668;2023-04-28T10:13:23;101278.09;;;17.09;100.00
64352;BME280;50680;52.626;-8.668;2023-04-28T10:15:50;101288.00;;;17.18;100.00
64352;BME280;50680;52.626;-8.668;2023-04-28T10:18:23;101292.44;;;17.06;100.00
64352;BME280;50680;52.626;-8.668;2023-04-28T10:20:59;101292.91;;;16.89;100.00
64352;BME280;50680;52.626;-8.668;2023-04-28T10:23:40;101299.66;;;16.58;100.00
64352;BME280;50680;52.626;-8.668;2023-04-28T10:26:14;101297.97;;;16.57;100.00
64352;BME280;50680;52.626;-8.668;2023-04-28T10:28:45;101301.56;;;16.55;100.00
64352;BME280;50680;52.626;-8.668;2023-04-28T10:31:18;101302.78;;;16.63;100.00
64352;BME280;50680;52.626;-8.668;2023-04-28T10:33:47;101306.88;;;17.02;100.00
64352;BME280;50680;52.626;-8.668;2023-04-28T10:39:12;101311.78;;;17.97;100.00
64352;BME280;50680;52.626;-8.668;2023-04-28T10:41:39;101307.53;;;18.38;100.00
64352;BME280;50680;52.626;-8.668;2023-04-28T10:44:42;101309.97;;;18.30;100.00
64352;BME280;50680;52.626;-8.668;2023-04-28T10:47:09;101315.19;;;18.53;100.00
64352;BME280;50680;52.626;-8.668;2023-04-28T11:00:48;101314.78;;;18.04;100.00
64352;BME280;50680;52.626;-8.668;2023-04-28T11:06:43;101322.66;;;18.27;100.00
64352;BME280;50680;52.626;-8.668;2023-04-28T11:11:39;101330.16;;;18.54;100.00
64352;BME280;50680;52.626;-8.668;2023-04-28T11:16:53;101325.56;;;18.77;100.00
64352;BME280;50680;52.626;-8.668;2023-04-28T11:19:22;101331.19;;;18.95;100.00
64352;BME280;50680;52.626;-8.668;2023-04-28T11:21:53;101325.16;;;19.24;100.00
64352;BME280;50680;52.626;-8.668;2023-04-28T11:24:25;101333.78;;;19.37;100.00
64352;BME280;50680;52.626;-8.668;2023-04-28T11:26:52;101329.09;;;19.60;100.00
64352;BME280;50680;52.626;-8.668;2023-04-28T11:29:32;101320.19;;;19.71;100.00
64352;BME280;50680;52.626;-8.668;2023-04-28T11:32:01;101329.78;;;19.93;100.00
64352;BME280;50680;52.626;-8.668;2023-04-28T11:34:29;101319.75;;;20.16;100.00
64352;BME280;50680;52.626;-8.668;2023-04-28T11:36:56;101329.41;;;20.46;100.00
64352;BME280;50680;52.626;-8.668;2023-04-28T11:39:28;101330.69;;;20.52;100.00
64352;BME280;50680;52.626;-8.668;2023-04-28T11:41:56;101327.72;;;20.55;100.00
64352;BME280;50680;52.626;-8.668;2023-04-28T11:44:25;101321.13;;;20.40;100.00
64352;BME280;50680;52.626;-8.668;2023-04-28T11:46:54;101332.91;;;20.18;100.00
64352;BME280;50680;52.626;-8.668;2023-04-28T11:49:23;101339.75;;;20.01;100.00
64352;BME280;50680;52.626;-8.668;2023-04-28T11:51:51;101334.72;;;19.67;100.00
64352;BME280;50680;52.626;-8.668;2023-04-28T11:54:31;101333.59;;;19.60;100.00
64352;BME280;50680;52.626;-8.668;2023-04-28T11:56:59;101337.81;;;19.72;100.00
64352;BME280;50680;52.626;-8.668;2023-04-28T11:59:29;101341.03;;;19.66;100.00
64352;BME280;50680;52.626;-8.668;2023-04-28T12:01:58;101334.66;;;19.78;100.00
64352;BME280;50680;52.626;-8.668;2023-04-28T12:04:33;101331.19;;;19.26;100.00
64352;BME280;50680;52.626;-8.668;2023-04-28T12:07:09;101332.53;;;19.10;100.00
64352;BME280;50680;52.626;-8.668;2023-04-28T12:12:15;101333.47;;;20.21;100.00
64352;BME280;50680;52.626;-8.668;2023-04-28T12:14:58;101338.41;;;20.75;100.00
64352;BME280;50680;52.626;-8.668;2023-04-28T12:19:54;101336.84;;;20.62;100.00
64352;BME280;50680;52.626;-8.668;2023-04-28T12:22:22;101340.06;;;20.56;100.00
64352;BME280;50680;52.626;-8.668;2023-04-28T12:25:03;101334.00;;;20.15;100.00
64352;BME280;50680;52.626;-8.668;2023-04-28T12:27:30;101336.00;;;20.33;100.00
64352;BME280;50680;52.626;-8.668;2023-04-28T12:29:57;101338.53;;;20.63;100.00
64352;BME280;50680;52.626;-8.668;2023-04-28T12:32:41;101340.34;;;20.53;100.00
64352;BME280;50680;52.626;-8.668;2023-04-28T12:35:11;101340.91;;;20.47;100.00
64352;BME280;50680;52.626;-8.668;2023-04-28T12:37:38;101344.69;;;20.54;100.00
64352;BME280;50680;52.626;-8.668;2023-04-28T12:40:07;101353.66;;;20.73;100.00
64352;BME280;50680;52.626;-8.668;2023-04-28T12:42:35;101356.47;;;20.61;100.00
64352;BME280;50680;52.626;-8.668;2023-04-28T12:45:02;101351.84;;;20.44;100.00
64352;BME280;50680;52.626;-8.668;2023-04-28T12:47:30;101353.81;;;20.32;100.00
64352;BME280;50680;52.626;-8.668;2023-04-28T12:49:57;101356.47;;;20.42;100.00
64352;BME280;50680;52.626;-8.668;2023-04-28T12:52:23;101365.56;;;20.39;100.00
64352;BME280;50680;52.626;-8.668;2023-04-28T12:54:50;101364.59;;;20.50;100.00
64352;BME280;50680;52.626;-8.668;2023-04-28T12:57:18;101361.66;;;20.73;100.00
64352;BME280;50680;52.626;-8.668;2023-04-28T12:59:46;101367.72;;;20.75;100.00
64352;BME280;50680;52.626;-8.668;2023-04-28T13:02:14;101374.28;;;20.71;100.00
64352;BME280;50680;52.626;-8.668;2023-04-28T13:04:41;101378.91;;;20.49;100.00
64352;BME280;50680;52.626;-8.668;2023-04-28T13:07:08;101376.06;;;20.21;100.00
64352;BME280;50680;52.626;-8.668;2023-04-28T13:09:35;101377.59;;;20.24;100.00